Time;durP1;ratioP1;P1;durP2;ratioP2;P2;SDS_P1;SDS_P2;PMS_P1;PMS_P2;Temp;Humidity;BMP_temperature;BMP_pressure;BME280_temperature;BME280_humidity;BME280_pressure;Samples;Min_cycle;Max_cycle;Signal;HPM_P1;HPM_P2
2022/04/13 00:01:06;;;;;;;11.82;8.82;;;;;;;;;;5031938;28;20518;-70
2022/04/13 00:03:31;;;;;;;14.82;9.55;;;;;;;;;;5030385;28;20232;-70
2022/04/13 00:05:56;;;;;;;9.55;7.90;;;;;;;;;;5032539;28;20199;-70
2022/04/13 00:08:21;;;;;;;13.20;8.70;;;;;;;;;;5031778;28;20210;-70
2022/04/13 00:10:47;;;;;;;12.35;8.68;;;;;;;;;;5032308;28;20658;-68
2022/04/13 00:13:13;;;;;;;11.47;9.33;;;;;;;;;;5029806;28;20656;-71
2022/04/13 00:15:38;;;;;;;14.05;9.38;;;;;;;;;;5028694;28;20712;-70
2022/04/13 00:18:07;;;;;;;12.13;9.18;;;;;;;;;;5033088;28;20273;-70
2022/04/13 00:20:33;;;;;;;10.50;8.88;;;;;;;;;;5029272;28;20549;-70
2022/04/13 00:22:58;;;;;;;11.87;9.10;;;;;;;;;;5031838;28;20206;-70
2022/04/13 00:25:23;;;;;;;14.10;9.93;;;;;;;;;;5031394;28;20197;-70
2022/04/13 00:27:48;;;;;;;14.83;9.90;;;;;;;;;;5031474;28;20202;-71
2022/04/13 00:30:14;;;;;;;14.43;9.87;;;;;;;;;;5029164;28;20185;-70
2022/04/13 00:32:39;;;;;;;12.23;9.13;;;;;;;;;;5026343;28;20201;-70
2022/04/13 00:35:04;;;;;;;13.27;10.37;;;;;;;;;;5030837;28;20269;-70
2022/04/13 00:37:30;;;;;;;14.47;10.23;;;;;;;;;;5030550;28;20179;-71
2022/04/13 00:39:55;;;;;;;14.63;9.27;;;;;;;;;;5030452;28;20644;-68
2022/04/13 00:42:20;;;;;;;13.77;9.13;;;;;;;;;;5030222;28;20701;-70
2022/04/13 00:44:46;;;;;;;14.57;11.10;;;;;;;;;;5022475;28;20178;-71
2022/04/13 00:47:11;;;;;;;15.73;10.60;;;;;;;;;;5027910;28;20178;-69
2022/04/13 00:49:37;;;;;;;14.13;10.40;;;;;;;;;;5029969;28;20759;-68
2022/04/13 00:52:03;;;;;;;17.90;10.57;;;;;;;;;;5031010;28;20269;-68
2022/04/13 00:54:29;;;;;;;13.50;10.93;;;;;;;;;;5027613;28;20182;-68
2022/04/13 00:56:55;;;;;;;16.00;11.23;;;;;;;;;;5031111;28;20261;-70
2022/04/13 00:59:20;;;;;;;16.43;10.37;;;;;;;;;;5029671;28;20281;-70
2022/04/13 01:01:47;;;;;;;14.53;10.10;;;;;;;;;;5030584;28;20655;-70
2022/04/13 01:04:13;;;;;;;16.43;11.40;;;;;;;;;;5029046;28;20273;-68
2022/04/13 01:06:39;;;;;;;14.17;9.50;;;;;;;;;;5030572;28;20337;-70
2022/04/13 01:09:04;;;;;;;16.47;10.60;;;;;;;;;;5030673;28;20206;-71
2022/04/13 01:11:30;;;;;;;14.27;10.47;;;;;;;;;;5029143;28;20711;-69
2022/04/13 01:13:56;;;;;;;15.20;10.60;;;;;;;;;;5030702;28;20189;-69
2022/04/13 01:16:22;;;;;;;13.77;11.07;;;;;;;;;;5024019;28;20179;-69
2022/04/13 01:18:47;;;;;;;12.37;10.20;;;;;;;;;;5027466;28;20214;-69
2022/04/13 01:21:15;;;;;;;15.37;9.87;;;;;;;;;;5030400;28;20189;-69
2022/04/13 01:23:41;;;;;;;14.03;10.70;;;;;;;;;;5029873;28;20273;-69
2022/04/13 01:26:07;;;;;;;16.73;9.87;;;;;;;;;;5024368;28;20261;-67
2022/04/13 01:28:33;;;;;;;13.10;9.80;;;;;;;;;;5021804;28;20236;-71
2022/04/13 01:30:58;;;;;;;13.67;9.00;;;;;;;;;;5026946;28;20182;-72
2022/04/13 01:33:25;;;;;;;12.57;8.97;;;;;;;;;;5031438;28;20670;-69
2022/04/13 01:35:50;;;;;;;14.77;10.00;;;;;;;;;;5030668;28;20182;-70
2022/04/13 01:38:16;;;;;;;13.73;9.53;;;;;;;;;;5030592;28;20190;-68
2022/04/13 01:40:42;;;;;;;14.63;9.07;;;;;;;;;;5027724;28;20269;-69
2022/04/13 01:43:07;;;;;;;13.07;9.20;;;;;;;;;;5020208;28;20203;-68
2022/04/13 01:45:33;;;;;;;13.37;8.93;;;;;;;;;;5022606;28;20177;-70
2022/04/13 01:47:58;;;;;;;15.20;9.83;;;;;;;;;;5021480;28;20226;-69
2022/04/13 01:50:23;;;;;;;14.13;8.27;;;;;;;;;;5029016;28;20171;-69
2022/04/13 01:52:49;;;;;;;9.80;7.60;;;;;;;;;;5030851;28;20179;-70
2022/04/13 01:55:14;;;;;;;11.00;8.03;;;;;;;;;;5029543;28;20209;-70
2022/04/13 01:57:40;;;;;;;17.10;8.70;;;;;;;;;;5030163;28;20234;-68
2022/04/13 02:00:06;;;;;;;14.47;9.67;;;;;;;;;;5030860;28;20263;-70
2022/04/13 02:02:32;;;;;;;13.20;9.20;;;;;;;;;;5029337;28;20216;-69
2022/04/13 02:04:57;;;;;;;11.50;7.70;;;;;;;;;;5019346;28;20174;-68
2022/04/13 02:07:22;;;;;;;12.23;8.50;;;;;;;;;;5024499;28;20289;-68
2022/04/13 02:09:47;;;;;;;11.00;8.83;;;;;;;;;;5024481;28;20584;-70
2022/04/13 02:12:12;;;;;;;9.97;7.70;;;;;;;;;;5028846;28;20192;-69
2022/04/13 02:14:38;;;;;;;12.30;8.87;;;;;;;;;;5029754;28;20706;-69
2022/04/13 02:17:03;;;;;;;10.87;8.63;;;;;;;;;;5031074;28;20186;-70
2022/04/13 02:19:28;;;;;;;13.02;9.70;;;;;;;;;;5029518;28;20202;-70
2022/04/13 02:21:53;;;;;;;13.57;8.40;;;;;;;;;;5031206;28;20519;-69
2022/04/13 02:24:18;;;;;;;9.53;7.57;;;;;;;;;;5014801;28;20727;-69
2022/04/13 02:26:44;;;;;;;16.30;8.20;;;;;;;;;;5029297;28;20178;-68
2022/04/13 02:29:09;;;;;;;13.10;9.47;;;;;;;;;;5029091;28;20233;-69
2022/04/13 02:31:34;;;;;;;10.33;8.73;;;;;;;;;;5030036;28;20181;-70
2022/04/13 02:33:59;;;;;;;12.63;10.13;;;;;;;;;;5028129;28;20261;-71
2022/04/13 02:36:24;;;;;;;16.67;10.53;;;;;;;;;;5030236;28;20178;-70
2022/04/13 02:38:50;;;;;;;15.30;9.53;;;;;;;;;;5030091;28;20244;-71
2022/04/13 02:41:15;;;;;;;14.37;10.20;;;;;;;;;;5029434;28;20182;-68
2022/04/13 02:43:40;;;;;;;14.63;9.67;;;;;;;;;;5028157;28;20181;-68
2022/04/13 02:46:06;;;;;;;12.33;9.50;;;;;;;;;;5029544;28;20440;-69
2022/04/13 02:48:31;;;;;;;16.20;9.73;;;;;;;;;;5029138;28;20208;-70
2022/04/13 02:50:56;;;;;;;13.25;10.05;;;;;;;;;;5029549;28;20189;-69
2022/04/13 02:53:23;;;;;;;12.23;10.13;;;;;;;;;;5029900;28;20182;-69
2022/04/13 02:55:49;;;;;;;12.90;10.20;;;;;;;;;;5027514;28;20606;-70
2022/04/13 02:58:14;;;;;;;12.50;10.03;;;;;;;;;;5013485;28;20194;-68
2022/04/13 03:00:39;;;;;;;14.37;10.63;;;;;;;;;;5022112;28;20239;-70
2022/04/13 03:03:04;;;;;;;15.67;10.17;;;;;;;;;;5029542;28;20236;-68
2022/04/13 03:05:30;;;;;;;16.20;10.43;;;;;;;;;;5026365;28;20182;-68
2022/04/13 03:07:55;;;;;;;18.20;11.40;;;;;;;;;;5029092;28;20221;-68
2022/04/13 03:10:20;;;;;;;14.63;10.83;;;;;;;;;;5030106;28;20699;-69
2022/04/13 03:12:45;;;;;;;14.97;10.23;;;;;;;;;;5027625;28;20184;-68
2022/04/13 03:15:11;;;;;;;17.13;11.70;;;;;;;;;;5028018;28;20182;-69
2022/04/13 03:17:37;;;;;;;15.43;11.38;;;;;;;;;;5029743;28;20179;-69
2022/04/13 03:20:02;;;;;;;19.07;11.43;;;;;;;;;;5028807;28;20236;-70
2022/04/13 03:22:27;;;;;;;15.47;12.17;;;;;;;;;;5028243;28;20234;-69
2022/04/13 03:24:53;;;;;;;14.20;11.17;;;;;;;;;;5027538;28;20213;-71
2022/04/13 03:27:18;;;;;;;19.97;12.00;;;;;;;;;;5020980;28;20198;-70
2022/04/13 03:29:44;;;;;;;18.80;12.33;;;;;;;;;;5024904;28;20213;-69
2022/04/13 03:32:09;;;;;;;16.43;12.07;;;;;;;;;;5029522;28;20277;-71
2022/04/13 03:34:34;;;;;;;13.83;11.83;;;;;;;;;;5028339;28;20190;-69
2022/04/13 03:36:59;;;;;;;15.17;11.93;;;;;;;;;;5029732;28;20193;-68
2022/04/13 03:39:25;;;;;;;17.45;12.35;;;;;;;;;;5026222;28;20205;-68
2022/04/13 03:41:50;;;;;;;17.13;12.17;;;;;;;;;;5029413;28;20210;-69
2022/04/13 03:44:15;;;;;;;15.03;12.10;;;;;;;;;;5028300;28;20190;-69
2022/04/13 03:46:40;;;;;;;20.97;13.23;;;;;;;;;;5029060;28;20663;-70
2022/04/13 03:49:07;;;;;;;16.83;13.60;;;;;;;;;;5028216;28;20195;-69
2022/04/13 03:51:32;;;;;;;20.87;14.17;;;;;;;;;;5021194;28;20182;-69
2022/04/13 03:53:57;;;;;;;20.93;13.97;;;;;;;;;;5029515;28;20179;-68
2022/04/13 03:56:22;;;;;;;19.53;14.60;;;;;;;;;;5033213;28;20178;-68
2022/04/13 03:58:48;;;;;;;20.37;13.10;;;;;;;;;;5027086;28;20202;-70
2022/04/13 04:01:13;;;;;;;20.17;14.57;;;;;;;;;;5032513;28;20182;-68
2022/04/13 04:03:38;;;;;;;21.95;14.52;;;;;;;;;;5032220;28;20210;-68
2022/04/13 04:06:03;;;;;;;21.13;14.43;;;;;;;;;;5032453;28;20206;-68
2022/04/13 04:08:29;;;;;;;21.03;13.47;;;;;;;;;;5032212;28;20210;-68
2022/04/13 04:10:54;;;;;;;24.20;15.23;;;;;;;;;;5031767;28;20178;-68
2022/04/13 04:13:20;;;;;;;20.27;13.80;;;;;;;;;;5031790;28;20202;-68
2022/04/13 04:15:45;;;;;;;19.40;15.80;;;;;;;;;;5030990;28;20178;-68
2022/04/13 04:18:10;;;;;;;18.37;14.40;;;;;;;;;;5032402;28;20217;-69
2022/04/13 04:20:35;;;;;;;20.87;14.43;;;;;;;;;;5031862;28;20183;-69
2022/04/13 04:23:00;;;;;;;20.30;16.13;;;;;;;;;;5032473;28;20206;-69
2022/04/13 04:25:26;;;;;;;20.13;14.25;;;;;;;;;;5031426;28;20738;-69
2022/04/13 04:27:51;;;;;;;22.93;15.43;;;;;;;;;;5031045;28;20198;-69
2022/04/13 04:30:16;;;;;;;21.67;15.07;;;;;;;;;;5031679;28;20237;-69
2022/04/13 04:32:41;;;;;;;20.13;14.57;;;;;;;;;;5031281;28;20210;-69
2022/04/13 04:35:07;;;;;;;22.00;15.02;;;;;;;;;;5027167;28;20566;-68
2022/04/13 04:37:32;;;;;;;20.27;14.40;;;;;;;;;;5031410;28;20171;-69
2022/04/13 04:39:57;;;;;;;20.53;14.73;;;;;;;;;;5028353;28;20202;-70
2022/04/13 04:42:22;;;;;;;18.40;14.80;;;;;;;;;;5028038;28;20202;-69
2022/04/13 04:44:48;;;;;;;16.85;13.85;;;;;;;;;;5030672;28;20194;-70
2022/04/13 04:47:13;;;;;;;16.70;14.18;;;;;;;;;;5029948;28;20178;-68
2022/04/13 04:49:38;;;;;;;22.13;15.05;;;;;;;;;;5030583;28;20746;-69
2022/04/13 04:52:03;;;;;;;18.30;14.43;;;;;;;;;;5030267;28;20187;-69
2022/04/13 04:54:29;;;;;;;17.30;14.43;;;;;;;;;;5029906;28;20189;-68
2022/04/13 04:56:54;;;;;;;21.60;15.45;;;;;;;;;;5030423;28;20181;-68
2022/04/13 04:59:19;;;;;;;18.45;14.48;;;;;;;;;;5030483;28;20264;-68
2022/04/13 05:01:44;;;;;;;21.40;14.45;;;;;;;;;;5023263;28;20237;-68
2022/04/13 05:04:09;;;;;;;21.77;15.68;;;;;;;;;;5028453;28;20175;-68
2022/04/13 05:06:35;;;;;;;20.35;15.73;;;;;;;;;;5029645;28;20185;-70
2022/04/13 05:09:00;;;;;;;24.98;16.70;;;;;;;;;;5031068;28;20621;-69
2022/04/13 05:11:25;;;;;;;22.02;15.32;;;;;;;;;;5030137;28;20257;-70
2022/04/13 05:13:50;;;;;;;25.52;17.38;;;;;;;;;;5029704;28;20178;-70
2022/04/13 05:16:16;;;;;;;21.65;17.25;;;;;;;;;;5030816;28;20185;-70
2022/04/13 05:18:42;;;;;;;20.23;14.95;;;;;;;;;;5031079;28;20202;-70
2022/04/13 05:21:08;;;;;;;24.80;16.17;;;;;;;;;;5031261;28;20178;-69
2022/04/13 05:23:33;;;;;;;22.58;15.30;;;;;;;;;;5030419;28;20194;-70
2022/04/13 05:25:59;;;;;;;21.45;15.55;;;;;;;;;;5032493;28;20177;-69
2022/04/13 05:28:24;;;;;;;24.35;17.17;;;;;;;;;;5030270;28;20289;-69
2022/04/13 05:30:49;;;;;;;23.95;15.90;;;;;;;;;;5031006;28;20178;-70
2022/04/13 05:33:14;;;;;;;22.73;17.27;;;;;;;;;;5029871;28;20178;-68
2022/04/13 05:35:40;;;;;;;21.83;16.73;;;;;;;;;;5030221;28;20170;-68
2022/04/13 05:38:05;;;;;;;21.25;16.75;;;;;;;;;;5026719;28;20202;-68
2022/04/13 05:40:30;;;;;;;20.20;16.25;;;;;;;;;;5026053;28;20185;-68
2022/04/13 05:42:56;;;;;;;26.70;18.45;;;;;;;;;;5027768;28;20283;-68
2022/04/13 05:45:21;;;;;;;24.10;19.02;;;;;;;;;;5028614;28;20213;-69
2022/04/13 05:47:46;;;;;;;21.77;17.35;;;;;;;;;;5030072;28;20305;-68
2022/04/13 05:50:12;;;;;;;21.88;16.50;;;;;;;;;;5028015;28;20251;-68
2022/04/13 05:52:39;;;;;;;22.60;16.75;;;;;;;;;;5029193;28;20190;-68
2022/04/13 05:55:04;;;;;;;21.98;16.98;;;;;;;;;;5030084;28;20174;-69
2022/04/13 05:57:29;;;;;;;22.83;17.58;;;;;;;;;;5029725;28;20265;-70
2022/04/13 05:59:54;;;;;;;20.57;16.97;;;;;;;;;;5029930;28;20656;-69
2022/04/13 06:02:20;;;;;;;20.77;16.40;;;;;;;;;;5028778;28;20463;-69
2022/04/13 06:04:45;;;;;;;24.48;16.05;;;;;;;;;;5029678;28;20189;-69
2022/04/13 06:07:10;;;;;;;24.45;16.85;;;;;;;;;;5028480;28;20182;-69
2022/04/13 06:09:36;;;;;;;21.15;15.93;;;;;;;;;;5029717;28;20272;-70
2022/04/13 06:12:01;;;;;;;20.77;16.83;;;;;;;;;;5029521;28;20185;-70
2022/04/13 06:14:26;;;;;;;21.48;16.42;;;;;;;;;;5026276;28;20193;-70
2022/04/13 06:16:51;;;;;;;20.38;15.90;;;;;;;;;;5031477;28;20541;-69
2022/04/13 06:19:17;;;;;;;21.97;16.33;;;;;;;;;;5027147;28;20210;-70
2022/04/13 06:21:42;;;;;;;20.30;14.68;;;;;;;;;;5029083;28;20463;-69
2022/04/13 06:24:07;;;;;;;26.05;17.08;;;;;;;;;;5017423;28;20175;-70
2022/04/13 06:26:32;;;;;;;21.33;16.00;;;;;;;;;;5028977;28;20185;-70
2022/04/13 06:28:57;;;;;;;18.20;15.30;;;;;;;;;;5028602;28;20543;-69
2022/04/13 06:31:23;;;;;;;23.03;17.33;;;;;;;;;;5025708;28;20232;-69
2022/04/13 06:33:52;;;;;;;21.37;15.90;;;;;;;;;;5028239;28;20846;-70
2022/04/13 06:36:17;;;;;;;23.00;15.73;;;;;;;;;;5018611;28;20423;-70
2022/04/13 06:38:43;;;;;;;21.65;15.65;;;;;;;;;;5022693;28;20288;-70
2022/04/13 06:41:08;;;;;;;22.48;15.85;;;;;;;;;;5024162;28;20174;-69
2022/04/13 06:43:33;;;;;;;21.45;16.25;;;;;;;;;;5029930;28;20209;-70
2022/04/13 06:45:59;;;;;;;18.17;14.88;;;;;;;;;;5030634;28;20209;-70
2022/04/13 06:48:24;;;;;;;21.25;15.70;;;;;;;;;;5031092;28;20431;-69
2022/04/13 06:50:49;;;;;;;20.88;15.38;;;;;;;;;;5031108;28;20223;-70
2022/04/13 06:53:15;;;;;;;20.95;14.70;;;;;;;;;;5019295;28;20178;-68
2022/04/13 06:55:41;;;;;;;18.27;15.63;;;;;;;;;;5020903;28;20235;-68
2022/04/13 06:58:06;;;;;;;18.35;14.02;;;;;;;;;;5030252;28;20277;-68
2022/04/13 07:00:32;;;;;;;17.75;13.98;;;;;;;;;;5025294;28;20178;-68
2022/04/13 07:02:57;;;;;;;16.98;13.43;;;;;;;;;;5027010;28;20727;-68
2022/04/13 07:05:26;;;;;;;15.23;12.10;;;;;;;;;;5029865;28;20228;-69
2022/04/13 07:07:51;;;;;;;17.42;12.52;;;;;;;;;;5021053;28;20210;-67
2022/04/13 07:10:16;;;;;;;15.52;12.30;;;;;;;;;;5021098;28;20178;-69
2022/04/13 07:12:42;;;;;;;16.52;12.95;;;;;;;;;;5022217;28;20180;-67
2022/04/13 07:15:07;;;;;;;18.55;12.07;;;;;;;;;;5025288;28;20269;-70
2022/04/13 07:17:32;;;;;;;17.13;11.75;;;;;;;;;;5024168;28;20197;-69
2022/04/13 07:19:57;;;;;;;13.20;10.50;;;;;;;;;;5024197;28;20309;-70
2022/04/13 07:22:23;;;;;;;15.73;11.10;;;;;;;;;;5028859;28;20209;-69
2022/04/13 07:24:49;;;;;;;12.20;10.20;;;;;;;;;;5024920;28;20477;-69
2022/04/13 07:27:14;;;;;;;15.30;10.95;;;;;;;;;;5015795;28;20175;-69
2022/04/13 07:29:39;;;;;;;14.70;10.90;;;;;;;;;;5020639;28;20198;-69
2022/04/13 07:32:06;;;;;;;13.32;10.05;;;;;;;;;;5031614;28;20431;-69
2022/04/13 07:34:31;;;;;;;12.98;9.98;;;;;;;;;;5030531;28;20301;-67
2022/04/13 07:36:57;;;;;;;16.27;9.75;;;;;;;;;;5033889;28;20257;-69
2022/04/13 07:39:22;;;;;;;10.13;8.17;;;;;;;;;;5032727;28;20210;-70
2022/04/13 07:41:47;;;;;;;11.50;9.13;;;;;;;;;;5029936;28;20522;-69
2022/04/13 07:44:12;;;;;;;11.80;8.47;;;;;;;;;;5028498;28;20189;-69
2022/04/13 07:46:38;;;;;;;11.98;7.88;;;;;;;;;;5031052;28;20500;-69
2022/04/13 07:49:05;;;;;;;12.40;8.25;;;;;;;;;;5033612;28;20579;-70
2022/04/13 07:51:31;;;;;;;10.30;8.07;;;;;;;;;;5028883;28;20175;-68
2022/04/13 07:53:56;;;;;;;11.50;7.60;;;;;;;;;;5029795;28;20185;-68
2022/04/13 07:56:21;;;;;;;14.20;9.00;;;;;;;;;;5033616;28;20197;-70
2022/04/13 07:58:46;;;;;;;14.13;8.33;;;;;;;;;;5022174;28;20447;-68
2022/04/13 08:01:11;;;;;;;13.40;8.00;;;;;;;;;;5028651;28;20450;-68
2022/04/13 08:03:36;;;;;;;11.43;7.65;;;;;;;;;;5028367;28;20682;-68
2022/04/13 08:06:03;;;;;;;8.98;6.85;;;;;;;;;;5029943;28;20218;-68
2022/04/13 08:08:28;;;;;;;12.35;7.53;;;;;;;;;;5018705;28;20212;-69
2022/04/13 08:10:53;;;;;;;11.20;7.30;;;;;;;;;;5031657;28;20822;-69
2022/04/13 08:13:18;;;;;;;10.20;7.37;;;;;;;;;;5027832;28;20569;-69
2022/04/13 08:15:43;;;;;;;10.57;7.80;;;;;;;;;;5031294;28;20478;-69
2022/04/13 08:18:08;;;;;;;12.87;6.93;;;;;;;;;;5025815;28;20837;-69
2022/04/13 08:20:34;;;;;;;10.50;6.45;;;;;;;;;;5029379;28;20423;-68
2022/04/13 08:22:59;;;;;;;10.00;6.13;;;;;;;;;;5028024;28;20242;-68
2022/04/13 08:25:24;;;;;;;9.52;6.80;;;;;;;;;;5026714;28;20277;-68
2022/04/13 08:27:49;;;;;;;14.23;8.23;;;;;;;;;;5032175;28;20209;-68
2022/04/13 08:30:14;;;;;;;11.70;7.80;;;;;;;;;;5029619;28;20193;-68
2022/04/13 08:32:40;;;;;;;10.40;7.53;;;;;;;;;;5025727;28;20420;-69
2022/04/13 08:35:05;;;;;;;10.05;7.30;;;;;;;;;;5025196;28;20182;-69
2022/04/13 08:37:31;;;;;;;15.18;8.27;;;;;;;;;;5031933;28;20178;-69
2022/04/13 08:39:56;;;;;;;11.82;8.40;;;;;;;;;;5031544;28;20208;-69
2022/04/13 08:42:30;;;;;;;12.07;7.80;;;;;;;;;;5027296;28;20216;-67
2022/04/13 08:44:57;;;;;;;11.25;8.35;;;;;;;;;;5035532;28;20437;-68
2022/04/13 08:47:23;;;;;;;14.65;8.02;;;;;;;;;;5031632;28;20747;-68
2022/04/13 08:49:50;;;;;;;13.63;8.63;;;;;;;;;;5033326;28;20265;-70
2022/04/13 08:52:22;;;;;;;14.27;8.60;;;;;;;;;;5026693;28;20569;-70
2022/04/13 08:54:50;;;;;;;12.15;7.95;;;;;;;;;;5025629;28;20289;-68
2022/04/13 08:57:17;;;;;;;12.77;8.80;;;;;;;;;;5029221;28;20216;-69
2022/04/13 08:59:51;;;;;;;13.35;8.70;;;;;;;;;;5031329;28;20202;-68
2022/04/13 09:02:16;;;;;;;13.38;7.75;;;;;;;;;;5029104;28;20561;-68
2022/04/13 09:04:45;;;;;;;13.13;8.27;;;;;;;;;;5031449;28;20202;-68
2022/04/13 09:07:13;;;;;;;9.77;6.55;;;;;;;;;;5027671;28;20933;-68
2022/04/13 09:09:43;;;;;;;10.10;7.63;;;;;;;;;;5026801;28;20599;-68
2022/04/13 09:12:10;;;;;;;12.18;8.05;;;;;;;;;;5026848;28;20174;-68
2022/04/13 09:14:37;;;;;;;9.55;7.47;;;;;;;;;;5029029;28;20685;-68
2022/04/13 09:17:03;;;;;;;13.55;7.70;;;;;;;;;;5030867;28;20224;-68
2022/04/13 09:19:28;;;;;;;13.25;8.30;;;;;;;;;;5028414;28;20276;-68
2022/04/13 09:21:54;;;;;;;15.03;7.87;;;;;;;;;;5030120;28;20206;-68
2022/04/13 09:24:19;;;;;;;12.32;8.32;;;;;;;;;;5031464;28;20574;-68
2022/04/13 09:26:45;;;;;;;10.90;8.25;;;;;;;;;;5029755;28;20691;-68
2022/04/13 09:29:11;;;;;;;16.50;9.23;;;;;;;;;;5026516;28;20202;-68
2022/04/13 09:31:36;;;;;;;13.40;8.45;;;;;;;;;;5030620;28;20515;-70
2022/04/13 09:34:02;;;;;;;16.20;9.10;;;;;;;;;;5029531;28;20201;-68
2022/04/13 09:36:27;;;;;;;13.57;9.00;;;;;;;;;;5031677;28;20175;-68
2022/04/13 09:38:54;;;;;;;12.38;8.10;;;;;;;;;;5029905;28;21392;-68
2022/04/13 09:41:19;;;;;;;9.90;8.65;;;;;;;;;;5030251;28;20261;-68
2022/04/13 09:43:53;;;;;;;10.63;8.77;;;;;;;;;;5030170;28;20308;-69
2022/04/13 09:46:30;;;;;;;13.75;8.45;;;;;;;;;;5024817;28;20431;-69
2022/04/13 09:49:14;;;;;;;14.30;9.50;;;;;;;;;;5029511;28;20730;-69
2022/04/13 09:51:46;;;;;;;12.27;8.38;;;;;;;;;;5024834;28;20178;-70
2022/04/13 09:54:12;;;;;;;14.82;8.43;;;;;;;;;;5027234;28;20645;-69
2022/04/13 09:56:38;;;;;;;13.32;7.63;;;;;;;;;;5027686;28;20185;-68
2022/04/13 09:59:04;;;;;;;13.18;8.13;;;;;;;;;;5030381;28;20198;-70
2022/04/13 10:01:31;;;;;;;13.70;8.30;;;;;;;;;;5028792;28;20166;-69
2022/04/13 10:03:56;;;;;;;11.70;7.25;;;;;;;;;;5027211;28;20202;-69
2022/04/13 10:06:28;;;;;;;13.60;8.52;;;;;;;;;;5028371;28;20190;-68
2022/04/13 10:09:00;;;;;;;12.07;7.50;;;;;;;;;;5013668;28;20210;-67
2022/04/13 10:11:26;;;;;;;12.05;7.38;;;;;;;;;;5018394;28;20641;-67
2022/04/13 10:13:51;;;;;;;10.82;7.43;;;;;;;;;;5026630;28;20229;-68
2022/04/13 10:16:16;;;;;;;10.05;6.63;;;;;;;;;;5027541;28;20570;-70
2022/04/13 10:18:56;;;;;;;11.32;8.15;;;;;;;;;;5021812;28;20265;-69
2022/04/13 10:21:34;;;;;;;12.45;6.60;;;;;;;;;;5029540;28;20178;-69
2022/04/13 10:23:59;;;;;;;14.40;8.07;;;;;;;;;;5026235;28;20331;-68
2022/04/13 10:26:24;;;;;;;14.30;8.60;;;;;;;;;;5027133;28;20261;-67
2022/04/13 10:28:50;;;;;;;12.50;8.07;;;;;;;;;;5030340;28;20435;-67
2022/04/13 10:31:15;;;;;;;13.30;8.00;;;;;;;;;;5029662;28;20430;-70
2022/04/13 10:33:47;;;;;;;14.82;8.35;;;;;;;;;;5027122;28;20202;-68
2022/04/13 10:36:12;;;;;;;12.25;8.00;;;;;;;;;;5025255;28;20199;-67
2022/04/13 10:38:37;;;;;;;14.70;8.45;;;;;;;;;;5029860;28;20313;-68
2022/04/13 10:41:03;;;;;;;10.53;7.33;;;;;;;;;;5032746;28;20190;-68
2022/04/13 10:43:28;;;;;;;14.35;7.72;;;;;;;;;;5026724;28;20562;-68
2022/04/13 10:45:54;;;;;;;16.35;8.68;;;;;;;;;;5024966;28;20320;-69
2022/04/13 10:48:22;;;;;;;13.80;8.52;;;;;;;;;;5027297;28;20202;-69
2022/04/13 10:51:06;;;;;;;11.52;7.40;;;;;;;;;;5034006;28;20185;-68
2022/04/13 10:53:38;;;;;;;13.43;7.50;;;;;;;;;;5026894;28;20178;-68
2022/04/13 10:56:04;;;;;;;13.20;6.75;;;;;;;;;;5029208;28;20182;-67
2022/04/13 10:58:32;;;;;;;11.00;6.75;;;;;;;;;;5031961;28;20194;-69
2022/04/13 11:01:02;;;;;;;12.00;8.05;;;;;;;;;;5028043;28;20536;-68
2022/04/13 11:03:32;;;;;;;12.00;7.78;;;;;;;;;;5030424;28;20209;-67
2022/04/13 11:05:57;;;;;;;10.77;7.32;;;;;;;;;;5034662;28;20181;-68
2022/04/13 11:08:32;;;;;;;13.63;7.78;;;;;;;;;;5032949;28;20217;-69
2022/04/13 11:10:57;;;;;;;13.73;7.13;;;;;;;;;;5028747;28;20170;-67
2022/04/13 11:13:23;;;;;;;12.70;7.18;;;;;;;;;;5030587;28;20178;-67
2022/04/13 11:15:50;;;;;;;10.70;6.95;;;;;;;;;;5031353;28;20178;-68
2022/04/13 11:18:18;;;;;;;12.38;7.97;;;;;;;;;;5032772;28;20198;-68
2022/04/13 11:20:59;;;;;;;13.07;7.75;;;;;;;;;;5032644;28;20178;-68
2022/04/13 11:23:43;;;;;;;12.77;7.40;;;;;;;;;;5035169;28;20243;-67
2022/04/13 11:26:08;;;;;;;10.25;7.28;;;;;;;;;;5028225;28;20178;-68
2022/04/13 11:28:34;;;;;;;12.80;7.63;;;;;;;;;;5032146;28;20248;-68
2022/04/13 11:31:06;;;;;;;11.10;7.35;;;;;;;;;;5026057;28;20174;-68
2022/04/13 11:33:43;;;;;;;13.63;7.88;;;;;;;;;;5026535;28;20232;-68
2022/04/13 11:36:08;;;;;;;16.38;8.85;;;;;;;;;;5031725;28;20182;-67
2022/04/13 11:38:36;;;;;;;12.63;7.88;;;;;;;;;;5030717;28;20225;-68
2022/04/13 11:41:07;;;;;;;10.35;7.70;;;;;;;;;;5031368;28;20342;-68
2022/04/13 11:43:33;;;;;;;10.93;7.13;;;;;;;;;;5031799;28;20202;-68
2022/04/13 11:45:59;;;;;;;10.50;7.82;;;;;;;;;;5027159;28;20179;-68
2022/04/13 11:48:34;;;;;;;14.57;7.18;;;;;;;;;;5032108;28;20680;-68
2022/04/13 11:51:32;;;;;;;11.18;7.20;;;;;;;;;;5028166;28;20181;-68
2022/04/13 11:54:10;;;;;;;10.40;6.93;;;;;;;;;;5028289;28;20671;-69
2022/04/13 11:56:36;;;;;;;12.15;7.25;;;;;;;;;;5031058;28;20178;-68
2022/04/13 11:59:02;;;;;;;15.07;7.60;;;;;;;;;;5032685;28;20190;-68
2022/04/13 12:01:27;;;;;;;11.18;6.93;;;;;;;;;;5032035;28;20201;-68
2022/04/13 12:03:54;;;;;;;8.32;7.25;;;;;;;;;;5025474;28;20211;-68
2022/04/13 12:06:21;;;;;;;14.73;8.18;;;;;;;;;;5032051;28;20178;-69
2022/04/13 12:08:57;;;;;;;10.98;7.57;;;;;;;;;;5031458;28;20548;-68
2022/04/13 12:11:24;;;;;;;9.70;7.10;;;;;;;;;;5030672;28;20191;-68
2022/04/13 12:13:56;;;;;;;10.38;6.78;;;;;;;;;;5022916;28;20742;-69
2022/04/13 12:16:21;;;;;;;11.63;7.50;;;;;;;;;;5031913;28;20284;-67
2022/04/13 12:18:46;;;;;;;10.82;6.95;;;;;;;;;;5028813;28;20704;-68
2022/04/13 12:21:13;;;;;;;11.50;6.50;;;;;;;;;;5032966;28;20197;-68
2022/04/13 12:23:39;;;;;;;7.80;6.93;;;;;;;;;;5028122;28;20300;-70
2022/04/13 12:26:04;;;;;;;10.32;7.28;;;;;;;;;;5032427;28;20265;-68
2022/04/13 12:28:29;;;;;;;11.75;7.85;;;;;;;;;;5032002;28;20235;-68
2022/04/13 12:30:59;;;;;;;12.07;7.57;;;;;;;;;;5029657;28;20200;-68
2022/04/13 12:33:25;;;;;;;13.40;7.55;;;;;;;;;;5028639;28;20432;-68
2022/04/13 12:35:51;;;;;;;14.40;7.95;;;;;;;;;;5032829;28;20174;-68
2022/04/13 12:38:21;;;;;;;9.23;5.72;;;;;;;;;;5030947;28;20202;-68
2022/04/13 12:40:46;;;;;;;9.65;6.35;;;;;;;;;;5030789;28;20720;-68
2022/04/13 12:43:11;;;;;;;10.05;5.65;;;;;;;;;;5027539;28;20300;-68
2022/04/13 12:45:36;;;;;;;7.87;4.73;;;;;;;;;;5029580;28;20170;-68
2022/04/13 12:48:07;;;;;;;10.20;5.60;;;;;;;;;;5028511;28;20463;-68
2022/04/13 12:50:33;;;;;;;11.77;7.18;;;;;;;;;;5030623;28;20436;-68
2022/04/13 12:52:58;;;;;;;11.00;7.00;;;;;;;;;;5028629;28;20204;-68
2022/04/13 12:55:24;;;;;;;10.52;6.13;;;;;;;;;;5029967;28;20581;-68
2022/04/13 12:57:49;;;;;;;11.18;5.75;;;;;;;;;;5031524;28;20194;-68
2022/04/13 13:00:34;;;;;;;6.87;4.67;;;;;;;;;;5032436;28;20174;-68
2022/04/13 13:02:59;;;;;;;7.13;4.90;;;;;;;;;;5027860;28;20447;-68
2022/04/13 13:05:24;;;;;;;11.63;5.13;;;;;;;;;;5031192;28;20240;-68
2022/04/13 13:07:49;;;;;;;7.28;4.55;;;;;;;;;;5031409;28;20432;-68
2022/04/13 13:10:15;;;;;;;8.18;6.10;;;;;;;;;;5023110;28;20201;-69
2022/04/13 13:12:40;;;;;;;9.27;5.78;;;;;;;;;;5024518;28;20194;-68
2022/04/13 13:15:05;;;;;;;10.17;6.33;;;;;;;;;;5015561;28;20560;-68
2022/04/13 13:17:31;;;;;;;8.40;5.60;;;;;;;;;;5026411;28;20431;-68
2022/04/13 13:20:06;;;;;;;8.25;5.30;;;;;;;;;;5027445;28;20205;-68
2022/04/13 13:22:38;;;;;;;7.63;5.55;;;;;;;;;;5031262;28;20240;-68
2022/04/13 13:25:04;;;;;;;7.75;5.05;;;;;;;;;;5029627;28;20178;-68
2022/04/13 13:27:33;;;;;;;9.27;5.70;;;;;;;;;;5031172;28;20239;-68
2022/04/13 13:30:05;;;;;;;11.27;6.22;;;;;;;;;;5031710;28;20166;-68
2022/04/13 13:32:34;;;;;;;6.78;4.78;;;;;;;;;;5028574;28;20616;-68
2022/04/13 13:35:00;;;;;;;7.45;3.42;;;;;;;;;;5031053;28;20171;-68
2022/04/13 13:37:44;;;;;;;7.75;4.93;;;;;;;;;;5031864;28;20562;-68
2022/04/13 13:40:28;;;;;;;6.72;4.35;;;;;;;;;;5030091;28;20671;-68
2022/04/13 13:42:53;;;;;;;7.10;4.97;;;;;;;;;;5029390;28;20250;-68
2022/04/13 13:45:18;;;;;;;5.80;4.40;;;;;;;;;;5030645;28;20182;-68
2022/04/13 13:47:44;;;;;;;8.93;4.53;;;;;;;;;;5029746;28;20434;-68
2022/04/13 13:50:09;;;;;;;6.00;3.92;;;;;;;;;;5030633;28;20174;-68
2022/04/13 13:52:35;;;;;;;9.52;3.88;;;;;;;;;;5030713;28;20648;-68
2022/04/13 13:55:00;;;;;;;4.85;4.10;;;;;;;;;;5026877;28;20183;-68
2022/04/13 13:57:25;;;;;;;7.38;4.43;;;;;;;;;;5029423;28;20197;-68
2022/04/13 13:59:51;;;;;;;8.13;4.45;;;;;;;;;;5029916;28;20181;-68
2022/04/13 14:02:16;;;;;;;9.73;4.53;;;;;;;;;;5026927;28;20201;-68
2022/04/13 14:04:41;;;;;;;7.70;3.97;;;;;;;;;;5027557;28;20428;-68
2022/04/13 14:07:06;;;;;;;8.80;4.03;;;;;;;;;;5029155;28;20656;-68
2022/04/13 14:09:31;;;;;;;6.70;4.13;;;;;;;;;;5032965;28;20436;-68
2022/04/13 14:11:58;;;;;;;6.80;3.80;;;;;;;;;;5035851;28;20930;-68
2022/04/13 14:14:24;;;;;;;5.72;3.58;;;;;;;;;;5028586;28;20268;-69
2022/04/13 14:16:50;;;;;;;6.63;4.30;;;;;;;;;;5022907;28;20263;-66
2022/04/13 14:19:15;;;;;;;6.22;3.28;;;;;;;;;;5026430;28;20452;-67
2022/04/13 14:21:40;;;;;;;6.83;2.70;;;;;;;;;;5026486;28;20541;-66